FNG8 EFHK-EFHK
Flight info
| Callsign | FNG8 |
|---|---|
| Flight time | 1h 22m |
| Altitude | 2000 |
| Route | HAGIP 595823N0242913E 595053N0243140E 592202N0221707E 594659N0221418E 594907N0232548E 595833N0242856E/N0190A040 IFR |
| Aircraft | D228/L-SDFGHILORVY/S |
Departure
| Time | 2026-04-22 12:02 |
|---|---|
| Airport | Helsinki Vantaa Airport (EFHK) |
Arrival
| Time | 2026-04-22 13:24 |
|---|---|
| Airport | Helsinki Vantaa Airport (EFHK) |
| Time | Latitude | Longitude | Altitude | Speed | Heading |
|---|---|---|---|---|---|
| 2026-04-22 11:53 | 60.31301 | 24.98894 | 150 ft | 0 kts | 244° |
| 2026-04-22 11:55 | 60.31295 | 24.98882 | 150 ft | 5 kts | 207° |
| 2026-04-22 11:56 | 60.31234 | 24.98831 | 149 ft | 8 kts | 179° |
| 2026-04-22 11:56 | 60.31166 | 24.98885 | 149 ft | 9 kts | 158° |
| 2026-04-22 11:56 | 60.31106 | 24.98854 | 148 ft | 11 kts | 243° |
| 2026-04-22 11:56 | 60.31070 | 24.98683 | 149 ft | 15 kts | 244° |
| 2026-04-22 11:57 | 60.31017 | 24.98476 | 152 ft | 18 kts | 242° |
| 2026-04-22 11:57 | 60.30976 | 24.98241 | 157 ft | 16 kts | 287° |
| 2026-04-22 11:57 | 60.31050 | 24.98146 | 158 ft | 15 kts | 333° |
| 2026-04-22 11:57 | 60.31155 | 24.98038 | 158 ft | 19 kts | 333° |
| 2026-04-22 11:58 | 60.31286 | 24.97904 | 158 ft | 23 kts | 333° |
| 2026-04-22 11:58 | 60.31439 | 24.97745 | 158 ft | 26 kts | 333° |
| 2026-04-22 11:58 | 60.31606 | 24.97572 | 159 ft | 28 kts | 334° |
| 2026-04-22 11:58 | 60.31786 | 24.97386 | 158 ft | 30 kts | 332° |
| 2026-04-22 11:59 | 60.31971 | 24.97196 | 159 ft | 27 kts | 335° |
| 2026-04-22 11:59 | 60.32101 | 24.97062 | 159 ft | 19 kts | 332° |
| 2026-04-22 11:59 | 60.32228 | 24.96926 | 159 ft | 22 kts | 333° |
| 2026-04-22 11:59 | 60.32292 | 24.96865 | 161 ft | 8 kts | 335° |
| 2026-04-22 12:00 | 60.32325 | 24.96830 | 162 ft | 3 kts | 329° |
| 2026-04-22 12:00 | 60.32346 | 24.96804 | 162 ft | 4 kts | 329° |
| 2026-04-22 12:00 | 60.32380 | 24.96767 | 164 ft | 6 kts | 333° |
| 2026-04-22 12:00 | 60.32418 | 24.96728 | 167 ft | 6 kts | 332° |
| 2026-04-22 12:01 | 60.32463 | 24.96685 | 170 ft | 8 kts | 334° |
| 2026-04-22 12:01 | 60.32476 | 24.96604 | 171 ft | 2 kts | 228° |
| 2026-04-22 12:01 | 60.32457 | 24.96558 | 172 ft | 25 kts | 229° |
| 2026-04-22 12:01 | 60.32160 | 24.95905 | 201 ft | 94 kts | 234° |
| 2026-04-22 12:02 | 60.31653 | 24.94809 | 532 ft | 115 kts | 234° |
| 2026-04-22 12:02 | 60.31102 | 24.93597 | 1025 ft | 122 kts | 236° |
| 2026-04-22 12:02 | 60.30487 | 24.92331 | 1617 ft | 131 kts | 224° |
| 2026-04-22 12:02 | 60.29571 | 24.91629 | 2017 ft | 158 kts | 204° |
| 2026-04-22 12:03 | 60.28371 | 24.91201 | 2012 ft | 187 kts | 192° |
| 2026-04-22 12:03 | 60.27029 | 24.90989 | 2006 ft | 197 kts | 189° |
| 2026-04-22 12:03 | 60.25653 | 24.90795 | 2009 ft | 199 kts | 190° |
| 2026-04-22 12:03 | 60.24265 | 24.90575 | 2001 ft | 201 kts | 190° |
| 2026-04-22 12:04 | 60.22875 | 24.90338 | 2002 ft | 200 kts | 191° |
| 2026-04-22 12:04 | 60.21489 | 24.90004 | 1998 ft | 199 kts | 199° |
| 2026-04-22 12:04 | 60.20258 | 24.88865 | 1994 ft | 192 kts | 220° |
| 2026-04-22 12:04 | 60.19256 | 24.87158 | 2006 ft | 189 kts | 229° |
| 2026-04-22 12:05 | 60.18287 | 24.85434 | 1988 ft | 188 kts | 230° |
| 2026-04-22 12:05 | 60.17311 | 24.83727 | 1992 ft | 184 kts | 229° |
| 2026-04-22 12:05 | 60.16354 | 24.82040 | 1992 ft | 182 kts | 229° |
| 2026-04-22 12:05 | 60.15403 | 24.80359 | 1993 ft | 182 kts | 229° |
| 2026-04-22 12:06 | 60.14454 | 24.78687 | 1990 ft | 181 kts | 229° |
| 2026-04-22 12:06 | 60.13507 | 24.77021 | 1991 ft | 181 kts | 229° |
| 2026-04-22 12:06 | 60.12563 | 24.75360 | 1990 ft | 181 kts | 229° |
| 2026-04-22 12:06 | 60.11615 | 24.73690 | 1992 ft | 182 kts | 229° |
| 2026-04-22 12:07 | 60.10665 | 24.72022 | 1995 ft | 181 kts | 229° |
| 2026-04-22 12:07 | 60.09712 | 24.70350 | 1997 ft | 182 kts | 229° |
| 2026-04-22 12:07 | 60.08759 | 24.68679 | 1999 ft | 182 kts | 228° |
| 2026-04-22 12:07 | 60.07809 | 24.67007 | 1994 ft | 182 kts | 229° |
| 2026-04-22 12:08 | 60.06850 | 24.65335 | 2000 ft | 183 kts | 228° |
| 2026-04-22 12:08 | 60.05890 | 24.63659 | 2005 ft | 184 kts | 229° |
| 2026-04-22 12:08 | 60.04928 | 24.61975 | 2008 ft | 183 kts | 229° |
| 2026-04-22 12:08 | 60.03972 | 24.60303 | 2002 ft | 183 kts | 228° |
| 2026-04-22 12:09 | 60.03010 | 24.58617 | 2008 ft | 184 kts | 229° |
| 2026-04-22 12:09 | 60.02057 | 24.56963 | 2006 ft | 183 kts | 229° |
| 2026-04-22 12:09 | 60.01101 | 24.55299 | 2006 ft | 181 kts | 229° |
| 2026-04-22 12:09 | 60.00149 | 24.53639 | 2009 ft | 183 kts | 228° |
| 2026-04-22 12:10 | 59.99189 | 24.51967 | 2023 ft | 184 kts | 229° |
| 2026-04-22 12:10 | 59.98193 | 24.50349 | 2022 ft | 188 kts | 220° |
| 2026-04-22 12:10 | 59.96957 | 24.49355 | 2018 ft | 196 kts | 199° |
| 2026-04-22 12:10 | 59.95579 | 24.49246 | 2019 ft | 202 kts | 177° |
| 2026-04-22 12:11 | 59.94190 | 24.49713 | 2020 ft | 202 kts | 175° |
| 2026-04-22 12:11 | 59.92802 | 24.50174 | 2014 ft | 202 kts | 176° |
| 2026-04-22 12:11 | 59.91409 | 24.50626 | 2013 ft | 203 kts | 177° |
| 2026-04-22 12:11 | 59.90009 | 24.51081 | 2013 ft | 204 kts | 177° |
| 2026-04-22 12:12 | 59.88610 | 24.51539 | 2015 ft | 204 kts | 176° |
| 2026-04-22 12:12 | 59.87234 | 24.51853 | 2006 ft | 198 kts | 189° |
| 2026-04-22 12:12 | 59.85920 | 24.51317 | 2026 ft | 189 kts | 209° |
| 2026-04-22 12:12 | 59.84805 | 24.50043 | 2026 ft | 182 kts | 227° |
| 2026-04-22 12:13 | 59.83972 | 24.48235 | 2025 ft | 173 kts | 244° |
| 2026-04-22 12:13 | 59.83454 | 24.46129 | 2027 ft | 168 kts | 256° |
| 2026-04-22 12:13 | 59.83018 | 24.43968 | 2030 ft | 169 kts | 255° |
| 2026-04-22 12:13 | 59.82574 | 24.41805 | 2029 ft | 169 kts | 255° |
| 2026-04-22 12:14 | 59.82129 | 24.39636 | 2031 ft | 169 kts | 256° |
| 2026-04-22 12:14 | 59.81685 | 24.37460 | 2032 ft | 169 kts | 255° |
| 2026-04-22 12:14 | 59.81239 | 24.35283 | 2032 ft | 171 kts | 256° |
| 2026-04-22 12:14 | 59.80795 | 24.33108 | 2034 ft | 172 kts | 256° |
| 2026-04-22 12:15 | 59.80344 | 24.30910 | 2036 ft | 172 kts | 256° |
| 2026-04-22 12:15 | 59.79891 | 24.28701 | 2036 ft | 173 kts | 256° |
| 2026-04-22 12:15 | 59.79437 | 24.26494 | 2050 ft | 172 kts | 256° |
| 2026-04-22 12:15 | 59.78984 | 24.24290 | 2052 ft | 172 kts | 255° |
| 2026-04-22 12:16 | 59.78528 | 24.22079 | 2050 ft | 172 kts | 256° |
| 2026-04-22 12:16 | 59.78074 | 24.19874 | 2051 ft | 173 kts | 255° |
| 2026-04-22 12:16 | 59.77624 | 24.17694 | 2049 ft | 173 kts | 255° |
| 2026-04-22 12:16 | 59.77163 | 24.15460 | 2050 ft | 173 kts | 255° |
| 2026-04-22 12:17 | 59.76713 | 24.13290 | 2050 ft | 172 kts | 255° |
| 2026-04-22 12:17 | 59.76259 | 24.11095 | 2050 ft | 172 kts | 255° |
| 2026-04-22 12:17 | 59.75805 | 24.08902 | 2051 ft | 172 kts | 255° |
| 2026-04-22 12:17 | 59.75349 | 24.06704 | 2050 ft | 173 kts | 255° |
| 2026-04-22 12:18 | 59.74890 | 24.04492 | 2050 ft | 174 kts | 255° |
| 2026-04-22 12:18 | 59.74429 | 24.02279 | 2051 ft | 173 kts | 255° |
| 2026-04-22 12:18 | 59.73970 | 24.00073 | 2049 ft | 173 kts | 255° |
| 2026-04-22 12:18 | 59.73510 | 23.97867 | 2050 ft | 172 kts | 255° |
| 2026-04-22 12:19 | 59.73053 | 23.95675 | 2054 ft | 172 kts | 255° |
| 2026-04-22 12:19 | 59.72593 | 23.93468 | 2057 ft | 174 kts | 255° |
| 2026-04-22 12:19 | 59.72130 | 23.91255 | 2060 ft | 174 kts | 256° |
| 2026-04-22 12:19 | 59.71665 | 23.89035 | 2060 ft | 175 kts | 256° |
| 2026-04-22 12:20 | 59.71200 | 23.86814 | 2062 ft | 174 kts | 256° |
| 2026-04-22 12:20 | 59.70735 | 23.84598 | 2064 ft | 174 kts | 256° |
| 2026-04-22 12:20 | 59.70268 | 23.82377 | 2064 ft | 175 kts | 256° |
| 2026-04-22 12:20 | 59.69803 | 23.80161 | 2064 ft | 175 kts | 256° |
| 2026-04-22 12:21 | 59.69341 | 23.77967 | 2063 ft | 175 kts | 256° |
| 2026-04-22 12:21 | 59.68866 | 23.75711 | 2062 ft | 175 kts | 256° |
| 2026-04-22 12:21 | 59.68402 | 23.73512 | 2065 ft | 176 kts | 256° |
| 2026-04-22 12:21 | 59.67932 | 23.71284 | 2065 ft | 175 kts | 256° |
| 2026-04-22 12:22 | 59.67462 | 23.69059 | 2066 ft | 176 kts | 255° |
| 2026-04-22 12:22 | 59.66990 | 23.66831 | 2065 ft | 175 kts | 255° |
| 2026-04-22 12:22 | 59.66519 | 23.64609 | 2063 ft | 175 kts | 255° |
| 2026-04-22 12:22 | 59.66050 | 23.62397 | 2062 ft | 174 kts | 255° |
| 2026-04-22 12:23 | 59.65581 | 23.60180 | 2060 ft | 175 kts | 255° |
| 2026-04-22 12:23 | 59.65109 | 23.57961 | 2061 ft | 175 kts | 256° |
| 2026-04-22 12:23 | 59.64636 | 23.55736 | 2061 ft | 176 kts | 255° |
| 2026-04-22 12:23 | 59.64161 | 23.53509 | 2063 ft | 176 kts | 255° |
| 2026-04-22 12:24 | 59.63688 | 23.51287 | 2062 ft | 176 kts | 255° |
| 2026-04-22 12:24 | 59.63212 | 23.49059 | 2060 ft | 176 kts | 256° |
| 2026-04-22 12:24 | 59.62735 | 23.46828 | 2059 ft | 176 kts | 256° |
| 2026-04-22 12:24 | 59.62260 | 23.44602 | 2057 ft | 177 kts | 257° |
| 2026-04-22 12:25 | 59.61780 | 23.42357 | 2055 ft | 178 kts | 257° |
| 2026-04-22 12:25 | 59.61298 | 23.40115 | 2059 ft | 177 kts | 256° |
| 2026-04-22 12:25 | 59.60820 | 23.37886 | 2058 ft | 176 kts | 256° |
| 2026-04-22 12:25 | 59.60343 | 23.35662 | 2059 ft | 176 kts | 256° |
| 2026-04-22 12:26 | 59.59863 | 23.33431 | 2077 ft | 176 kts | 256° |
| 2026-04-22 12:26 | 59.59382 | 23.31195 | 2079 ft | 177 kts | 256° |
| 2026-04-22 12:26 | 59.58900 | 23.28956 | 2078 ft | 177 kts | 256° |
| 2026-04-22 12:26 | 59.58416 | 23.26716 | 2085 ft | 177 kts | 256° |
| 2026-04-22 12:27 | 59.57931 | 23.24471 | 2085 ft | 178 kts | 256° |
| 2026-04-22 12:27 | 59.57446 | 23.22224 | 2084 ft | 178 kts | 256° |
| 2026-04-22 12:27 | 59.56961 | 23.19980 | 2085 ft | 178 kts | 256° |
| 2026-04-22 12:27 | 59.56473 | 23.17732 | 2084 ft | 178 kts | 256° |
| 2026-04-22 12:28 | 59.55988 | 23.15495 | 2086 ft | 177 kts | 256° |
| 2026-04-22 12:28 | 59.55510 | 23.13293 | 2086 ft | 177 kts | 256° |
| 2026-04-22 12:28 | 59.55025 | 23.11061 | 2085 ft | 177 kts | 256° |
| 2026-04-22 12:28 | 59.54539 | 23.08823 | 2083 ft | 178 kts | 256° |
| 2026-04-22 12:29 | 59.54050 | 23.06578 | 2080 ft | 179 kts | 256° |
| 2026-04-22 12:29 | 59.53559 | 23.04325 | 2080 ft | 179 kts | 256° |
| 2026-04-22 12:29 | 59.53066 | 23.02070 | 2099 ft | 179 kts | 256° |
| 2026-04-22 12:29 | 59.52574 | 22.99821 | 2100 ft | 178 kts | 256° |
| 2026-04-22 12:30 | 59.51594 | 22.95344 | 2100 ft | 178 kts | 256° |
| 2026-04-22 12:30 | 59.51104 | 22.93107 | 2100 ft | 178 kts | 256° |
| 2026-04-22 12:30 | 59.50613 | 22.90869 | 2106 ft | 178 kts | 256° |
| 2026-04-22 12:31 | 59.50120 | 22.88623 | 2107 ft | 179 kts | 256° |
| 2026-04-22 12:31 | 59.49628 | 22.86387 | 2106 ft | 178 kts | 256° |
| 2026-04-22 12:31 | 59.49136 | 22.84148 | 2108 ft | 179 kts | 256° |
| 2026-04-22 12:31 | 59.48641 | 22.81903 | 2109 ft | 179 kts | 256° |
| 2026-04-22 12:32 | 59.48147 | 22.79667 | 2108 ft | 178 kts | 256° |
| 2026-04-22 12:32 | 59.47154 | 22.75172 | 2108 ft | 179 kts | 256° |
| 2026-04-22 12:32 | 59.46657 | 22.72925 | 2120 ft | 180 kts | 256° |
| 2026-04-22 12:33 | 59.46158 | 22.70674 | 2119 ft | 179 kts | 256° |
| 2026-04-22 12:33 | 59.45660 | 22.68434 | 2119 ft | 178 kts | 256° |
| 2026-04-22 12:33 | 59.45166 | 22.66204 | 2119 ft | 178 kts | 256° |
| 2026-04-22 12:33 | 59.44670 | 22.63974 | 2123 ft | 178 kts | 256° |
| 2026-04-22 12:34 | 59.44172 | 22.61734 | 2121 ft | 179 kts | 256° |
| 2026-04-22 12:34 | 59.43671 | 22.59484 | 2121 ft | 180 kts | 256° |
| 2026-04-22 12:34 | 59.43169 | 22.57231 | 2120 ft | 180 kts | 256° |
| 2026-04-22 12:34 | 59.42662 | 22.54981 | 2119 ft | 181 kts | 257° |
| 2026-04-22 12:35 | 59.42159 | 22.52714 | 2119 ft | 182 kts | 257° |
| 2026-04-22 12:35 | 59.41651 | 22.50436 | 2123 ft | 183 kts | 257° |
| 2026-04-22 12:35 | 59.41140 | 22.48154 | 2124 ft | 183 kts | 257° |
| 2026-04-22 12:35 | 59.40627 | 22.45874 | 2120 ft | 182 kts | 257° |
| 2026-04-22 12:36 | 59.40118 | 22.43602 | 2116 ft | 182 kts | 257° |
| 2026-04-22 12:36 | 59.39618 | 22.41377 | 2133 ft | 179 kts | 257° |
| 2026-04-22 12:36 | 59.39129 | 22.39140 | 2129 ft | 176 kts | 261° |
| 2026-04-22 12:36 | 59.38914 | 22.36857 | 2132 ft | 167 kts | 276° |
| 2026-04-22 12:37 | 59.39006 | 22.34634 | 2134 ft | 161 kts | 290° |
| 2026-04-22 12:37 | 59.39368 | 22.32596 | 2136 ft | 156 kts | 302° |
| 2026-04-22 12:37 | 59.39957 | 22.30839 | 2136 ft | 153 kts | 314° |
| 2026-04-22 12:37 | 59.40732 | 22.29432 | 2136 ft | 152 kts | 325° |
| 2026-04-22 12:38 | 59.41652 | 22.28431 | 2134 ft | 152 kts | 336° |
| 2026-04-22 12:38 | 59.42672 | 22.27886 | 2155 ft | 153 kts | 348° |
| 2026-04-22 12:38 | 59.43734 | 22.27752 | 2143 ft | 152 kts | 353° |
| 2026-04-22 12:38 | 59.44790 | 22.27631 | 2145 ft | 152 kts | 353° |
| 2026-04-22 12:39 | 59.45844 | 22.27508 | 2144 ft | 151 kts | 353° |
| 2026-04-22 12:39 | 59.47946 | 22.27272 | 2143 ft | 151 kts | 353° |
| 2026-04-22 12:39 | 59.48998 | 22.27154 | 2143 ft | 152 kts | 353° |
| 2026-04-22 12:40 | 59.49709 | 22.27074 | 2139 ft | 152 kts | 353° |
| 2026-04-22 12:40 | 59.50748 | 22.26957 | 2144 ft | 151 kts | 353° |
| 2026-04-22 12:40 | 59.51799 | 22.26839 | 2137 ft | 151 kts | 353° |
| 2026-04-22 12:40 | 59.52850 | 22.26721 | 2144 ft | 151 kts | 353° |
| 2026-04-22 12:41 | 59.54251 | 22.26563 | 2137 ft | 151 kts | 353° |
| 2026-04-22 12:41 | 59.54944 | 22.26485 | 2138 ft | 150 kts | 353° |
| 2026-04-22 12:41 | 59.55986 | 22.26367 | 2124 ft | 150 kts | 353° |
| 2026-04-22 12:41 | 59.57029 | 22.26250 | 2130 ft | 150 kts | 353° |
| 2026-04-22 12:42 | 59.58072 | 22.26132 | 2128 ft | 150 kts | 353° |
| 2026-04-22 12:42 | 59.59116 | 22.26014 | 2123 ft | 151 kts | 353° |
| 2026-04-22 12:42 | 59.60161 | 22.25895 | 2126 ft | 151 kts | 353° |
| 2026-04-22 12:42 | 59.61208 | 22.25777 | 2129 ft | 151 kts | 353° |
| 2026-04-22 12:43 | 59.62257 | 22.25658 | 2137 ft | 151 kts | 353° |
| 2026-04-22 12:43 | 59.63306 | 22.25540 | 2130 ft | 151 kts | 353° |
| 2026-04-22 12:43 | 59.64356 | 22.25421 | 2136 ft | 151 kts | 353° |
| 2026-04-22 12:43 | 59.65403 | 22.25303 | 2128 ft | 150 kts | 353° |
| 2026-04-22 12:44 | 59.66445 | 22.25184 | 2133 ft | 150 kts | 353° |
| 2026-04-22 12:44 | 59.67484 | 22.25066 | 2127 ft | 149 kts | 353° |
| 2026-04-22 12:44 | 59.68521 | 22.24948 | 2112 ft | 150 kts | 353° |
| 2026-04-22 12:44 | 59.69562 | 22.24830 | 2125 ft | 150 kts | 353° |
| 2026-04-22 12:45 | 59.70603 | 22.24712 | 2129 ft | 150 kts | 353° |
| 2026-04-22 12:45 | 59.71645 | 22.24593 | 2127 ft | 150 kts | 353° |
| 2026-04-22 12:45 | 59.72687 | 22.24474 | 2124 ft | 150 kts | 353° |
| 2026-04-22 12:45 | 59.73729 | 22.24355 | 2131 ft | 150 kts | 353° |
| 2026-04-22 12:46 | 59.74773 | 22.24359 | 2122 ft | 152 kts | 2° |
| 2026-04-22 12:46 | 59.75806 | 22.24870 | 2122 ft | 156 kts | 13° |
| 2026-04-22 12:46 | 59.76782 | 22.25908 | 2122 ft | 163 kts | 26° |
| 2026-04-22 12:46 | 59.77627 | 22.27473 | 2118 ft | 170 kts | 39° |
| 2026-04-22 12:47 | 59.78258 | 22.29528 | 2119 ft | 180 kts | 54° |
| 2026-04-22 12:47 | 59.78591 | 22.31998 | 2114 ft | 192 kts | 72° |
| 2026-04-22 12:47 | 59.78673 | 22.34657 | 2092 ft | 193 kts | 75° |
| 2026-04-22 12:47 | 59.78761 | 22.37313 | 2094 ft | 193 kts | 75° |
| 2026-04-22 12:48 | 59.78851 | 22.39976 | 2094 ft | 193 kts | 76° |
| 2026-04-22 12:48 | 59.78938 | 22.42601 | 2097 ft | 192 kts | 76° |
| 2026-04-22 12:48 | 59.79025 | 22.45255 | 2097 ft | 192 kts | 75° |
| 2026-04-22 12:48 | 59.79112 | 22.47899 | 2096 ft | 192 kts | 76° |
| 2026-04-22 12:49 | 59.79198 | 22.50542 | 2099 ft | 192 kts | 76° |
| 2026-04-22 12:49 | 59.79283 | 22.53191 | 2100 ft | 193 kts | 75° |
| 2026-04-22 12:49 | 59.79369 | 22.55853 | 2098 ft | 193 kts | 76° |
| 2026-04-22 12:49 | 59.79453 | 22.58516 | 2099 ft | 193 kts | 75° |
| 2026-04-22 12:50 | 59.79537 | 22.61175 | 2101 ft | 193 kts | 75° |
| 2026-04-22 12:50 | 59.79621 | 22.63836 | 2090 ft | 193 kts | 76° |
| 2026-04-22 12:50 | 59.79703 | 22.66483 | 2092 ft | 192 kts | 76° |
| 2026-04-22 12:50 | 59.79785 | 22.69127 | 2090 ft | 192 kts | 75° |
| 2026-04-22 12:51 | 59.79868 | 22.71783 | 2085 ft | 193 kts | 75° |
| 2026-04-22 12:51 | 59.79949 | 22.74444 | 2085 ft | 193 kts | 75° |
| 2026-04-22 12:51 | 59.80029 | 22.77095 | 2088 ft | 192 kts | 75° |
| 2026-04-22 12:51 | 59.80110 | 22.79752 | 2087 ft | 193 kts | 75° |
| 2026-04-22 12:52 | 59.80190 | 22.82410 | 2090 ft | 193 kts | 76° |
| 2026-04-22 12:52 | 59.80269 | 22.85072 | 2091 ft | 192 kts | 76° |
| 2026-04-22 12:52 | 59.80348 | 22.87726 | 2096 ft | 193 kts | 76° |
| 2026-04-22 12:52 | 59.80426 | 22.90386 | 2089 ft | 193 kts | 76° |
| 2026-04-22 12:53 | 59.80503 | 22.93049 | 2091 ft | 193 kts | 78° |
| 2026-04-22 12:53 | 59.80582 | 22.95730 | 2081 ft | 196 kts | 78° |
| 2026-04-22 12:53 | 59.80659 | 22.98440 | 2082 ft | 197 kts | 78° |
| 2026-04-22 12:53 | 59.80737 | 23.01154 | 2082 ft | 197 kts | 78° |
| 2026-04-22 12:54 | 59.80814 | 23.03867 | 2084 ft | 197 kts | 79° |
| 2026-04-22 12:54 | 59.80890 | 23.06580 | 2085 ft | 197 kts | 79° |
| 2026-04-22 12:54 | 59.80966 | 23.09291 | 2082 ft | 197 kts | 79° |
| 2026-04-22 12:54 | 59.81040 | 23.11970 | 2084 ft | 197 kts | 79° |
| 2026-04-22 12:55 | 59.81115 | 23.14686 | 2086 ft | 197 kts | 78° |
| 2026-04-22 12:55 | 59.81190 | 23.17403 | 2086 ft | 197 kts | 78° |
| 2026-04-22 12:55 | 59.81263 | 23.20123 | 2086 ft | 197 kts | 78° |
| 2026-04-22 12:55 | 59.81336 | 23.22840 | 2071 ft | 197 kts | 79° |
| 2026-04-22 12:56 | 59.81408 | 23.25557 | 2069 ft | 197 kts | 79° |
| 2026-04-22 12:56 | 59.81482 | 23.28277 | 2069 ft | 197 kts | 78° |
| 2026-04-22 12:56 | 59.81553 | 23.30998 | 2069 ft | 197 kts | 79° |
| 2026-04-22 12:56 | 59.81624 | 23.33724 | 2072 ft | 198 kts | 78° |
| 2026-04-22 12:57 | 59.81695 | 23.36451 | 2070 ft | 197 kts | 79° |
| 2026-04-22 12:57 | 59.81764 | 23.39173 | 2071 ft | 197 kts | 79° |
| 2026-04-22 12:57 | 59.81834 | 23.41889 | 2071 ft | 197 kts | 79° |
| 2026-04-22 12:57 | 59.82086 | 23.44487 | 2076 ft | 188 kts | 63° |
| 2026-04-22 12:58 | 59.82485 | 23.46988 | 2056 ft | 192 kts | 65° |
| 2026-04-22 12:58 | 59.82870 | 23.49531 | 2057 ft | 192 kts | 65° |
| 2026-04-22 12:58 | 59.83257 | 23.52069 | 2058 ft | 192 kts | 64° |
| 2026-04-22 12:58 | 59.83644 | 23.54600 | 2051 ft | 191 kts | 65° |
| 2026-04-22 12:59 | 59.84030 | 23.57121 | 2052 ft | 191 kts | 64° |
| 2026-04-22 12:59 | 59.84417 | 23.59658 | 2052 ft | 192 kts | 65° |
| 2026-04-22 12:59 | 59.84806 | 23.62202 | 2053 ft | 192 kts | 65° |
| 2026-04-22 12:59 | 59.85193 | 23.64745 | 2051 ft | 192 kts | 65° |
| 2026-04-22 13:00 | 59.85577 | 23.67274 | 2052 ft | 191 kts | 64° |
| 2026-04-22 13:00 | 59.85963 | 23.69805 | 2066 ft | 192 kts | 66° |
| 2026-04-22 13:00 | 59.86352 | 23.72380 | 2053 ft | 195 kts | 66° |
| 2026-04-22 13:00 | 59.86744 | 23.74968 | 2052 ft | 196 kts | 66° |
| 2026-04-22 13:01 | 59.87137 | 23.77571 | 2050 ft | 197 kts | 66° |
| 2026-04-22 13:01 | 59.87529 | 23.80174 | 2050 ft | 197 kts | 66° |
| 2026-04-22 13:01 | 59.87923 | 23.82782 | 2050 ft | 197 kts | 66° |
| 2026-04-22 13:01 | 59.88313 | 23.85382 | 2041 ft | 196 kts | 66° |
| 2026-04-22 13:02 | 59.88705 | 23.87987 | 2033 ft | 197 kts | 66° |
| 2026-04-22 13:02 | 59.89099 | 23.90610 | 2033 ft | 198 kts | 66° |
| 2026-04-22 13:02 | 59.89492 | 23.93235 | 2033 ft | 198 kts | 66° |
| 2026-04-22 13:02 | 59.89882 | 23.95855 | 2032 ft | 197 kts | 66° |
| 2026-04-22 13:03 | 59.90272 | 23.98464 | 2034 ft | 196 kts | 66° |
| 2026-04-22 13:03 | 59.90661 | 24.01073 | 2033 ft | 197 kts | 66° |
| 2026-04-22 13:03 | 59.91047 | 24.03659 | 2033 ft | 197 kts | 66° |
| 2026-04-22 13:03 | 59.91435 | 24.06279 | 2032 ft | 197 kts | 66° |
| 2026-04-22 13:04 | 59.91822 | 24.08895 | 2037 ft | 197 kts | 66° |
| 2026-04-22 13:04 | 59.92212 | 24.11523 | 2036 ft | 198 kts | 66° |
| 2026-04-22 13:04 | 59.92602 | 24.14155 | 2036 ft | 198 kts | 66° |
| 2026-04-22 13:04 | 59.92989 | 24.16780 | 2034 ft | 197 kts | 66° |
| 2026-04-22 13:05 | 59.93375 | 24.19394 | 2034 ft | 197 kts | 66° |
| 2026-04-22 13:05 | 59.93760 | 24.22011 | 2015 ft | 196 kts | 66° |
| 2026-04-22 13:05 | 59.94145 | 24.24628 | 2016 ft | 197 kts | 66° |
| 2026-04-22 13:05 | 59.94532 | 24.27262 | 2017 ft | 198 kts | 66° |
| 2026-04-22 13:06 | 59.94916 | 24.29895 | 2015 ft | 198 kts | 66° |
| 2026-04-22 13:06 | 59.95302 | 24.32531 | 2015 ft | 197 kts | 66° |
| 2026-04-22 13:06 | 59.95683 | 24.35144 | 2015 ft | 196 kts | 66° |
| 2026-04-22 13:06 | 59.96064 | 24.37753 | 2015 ft | 196 kts | 66° |
| 2026-04-22 13:07 | 59.96442 | 24.40368 | 2017 ft | 195 kts | 67° |
| 2026-04-22 13:07 | 59.96825 | 24.42978 | 2004 ft | 196 kts | 67° |
| 2026-04-22 13:07 | 59.97195 | 24.45543 | 2006 ft | 194 kts | 67° |
| 2026-04-22 13:07 | 59.97801 | 24.47836 | 1992 ft | 183 kts | 39° |
| 2026-04-22 13:08 | 59.98721 | 24.49541 | 2234 ft | 181 kts | 35° |
| 2026-04-22 13:08 | 59.99632 | 24.51293 | 2502 ft | 182 kts | 38° |
| 2026-04-22 13:08 | 60.00502 | 24.53110 | 2751 ft | 180 kts | 39° |
| 2026-04-22 13:08 | 60.01355 | 24.54922 | 3014 ft | 178 kts | 38° |
| 2026-04-22 13:09 | 60.02194 | 24.56702 | 3266 ft | 175 kts | 38° |
| 2026-04-22 13:09 | 60.03022 | 24.58454 | 3520 ft | 171 kts | 37° |
| 2026-04-22 13:09 | 60.03836 | 24.60176 | 3775 ft | 170 kts | 37° |
| 2026-04-22 13:09 | 60.04655 | 24.61902 | 3979 ft | 175 kts | 38° |
| 2026-04-22 13:10 | 60.05511 | 24.63719 | 3981 ft | 180 kts | 39° |
| 2026-04-22 13:10 | 60.06349 | 24.65505 | 3981 ft | 177 kts | 38° |
| 2026-04-22 13:10 | 60.07194 | 24.67299 | 3979 ft | 177 kts | 38° |
| 2026-04-22 13:10 | 60.08038 | 24.69093 | 3972 ft | 177 kts | 38° |
| 2026-04-22 13:11 | 60.08884 | 24.70891 | 3977 ft | 177 kts | 38° |
| 2026-04-22 13:11 | 60.09724 | 24.72682 | 3973 ft | 176 kts | 38° |
| 2026-04-22 13:11 | 60.10568 | 24.74476 | 3967 ft | 177 kts | 38° |
| 2026-04-22 13:11 | 60.11407 | 24.76266 | 3968 ft | 176 kts | 39° |
| 2026-04-22 13:12 | 60.12249 | 24.78062 | 3974 ft | 176 kts | 39° |
| 2026-04-22 13:12 | 60.13087 | 24.79852 | 3968 ft | 176 kts | 39° |
| 2026-04-22 13:12 | 60.13926 | 24.81646 | 3969 ft | 176 kts | 39° |
| 2026-04-22 13:12 | 60.14764 | 24.83440 | 3971 ft | 176 kts | 39° |
| 2026-04-22 13:13 | 60.15603 | 24.85234 | 3969 ft | 177 kts | 39° |
| 2026-04-22 13:13 | 60.16447 | 24.87042 | 3978 ft | 179 kts | 39° |
| 2026-04-22 13:13 | 60.17294 | 24.88860 | 3971 ft | 178 kts | 39° |
| 2026-04-22 13:13 | 60.18138 | 24.90671 | 3979 ft | 177 kts | 39° |
| 2026-04-22 13:14 | 60.18986 | 24.92490 | 3976 ft | 177 kts | 39° |
| 2026-04-22 13:14 | 60.19817 | 24.94278 | 3978 ft | 177 kts | 39° |
| 2026-04-22 13:14 | 60.20661 | 24.96093 | 3976 ft | 178 kts | 39° |
| 2026-04-22 13:14 | 60.21502 | 24.97906 | 3980 ft | 177 kts | 39° |
| 2026-04-22 13:15 | 60.22344 | 24.99718 | 3974 ft | 177 kts | 39° |
| 2026-04-22 13:15 | 60.23179 | 25.01519 | 3971 ft | 176 kts | 39° |
| 2026-04-22 13:15 | 60.24013 | 25.03318 | 3971 ft | 176 kts | 39° |
| 2026-04-22 13:15 | 60.24846 | 25.05117 | 3971 ft | 176 kts | 39° |
| 2026-04-22 13:16 | 60.25682 | 25.06923 | 3971 ft | 177 kts | 39° |
| 2026-04-22 13:16 | 60.26521 | 25.08738 | 3973 ft | 177 kts | 39° |
| 2026-04-22 13:16 | 60.27360 | 25.10557 | 3970 ft | 177 kts | 39° |
| 2026-04-22 13:16 | 60.28199 | 25.12373 | 3971 ft | 177 kts | 39° |
| 2026-04-22 13:17 | 60.29036 | 25.14187 | 3976 ft | 177 kts | 39° |
| 2026-04-22 13:17 | 60.29873 | 25.15998 | 3975 ft | 176 kts | 39° |
| 2026-04-22 13:17 | 60.30706 | 25.17813 | 3974 ft | 176 kts | 39° |
| 2026-04-22 13:17 | 60.31539 | 25.19625 | 3972 ft | 175 kts | 39° |
| 2026-04-22 13:18 | 60.32370 | 25.21432 | 3972 ft | 177 kts | 39° |
| 2026-04-22 13:18 | 60.33207 | 25.23255 | 3975 ft | 177 kts | 39° |
| 2026-04-22 13:18 | 60.34048 | 25.25080 | 3972 ft | 177 kts | 38° |
| 2026-04-22 13:18 | 60.35004 | 25.26548 | 3967 ft | 170 kts | 22° |
| 2026-04-22 13:19 | 60.36093 | 25.27384 | 3961 ft | 167 kts | 8° |
| 2026-04-22 13:19 | 60.37235 | 25.27579 | 3956 ft | 163 kts | 355° |
| 2026-04-22 13:19 | 60.38344 | 25.27149 | 3956 ft | 162 kts | 341° |
| 2026-04-22 13:19 | 60.39352 | 25.26140 | 3958 ft | 162 kts | 328° |
| 2026-04-22 13:20 | 60.40197 | 25.24612 | 3963 ft | 165 kts | 315° |
| 2026-04-22 13:20 | 60.40818 | 25.22629 | 3959 ft | 170 kts | 301° |
| 2026-04-22 13:20 | 60.41152 | 25.20305 | 3961 ft | 175 kts | 285° |
| 2026-04-22 13:20 | 60.41153 | 25.17828 | 3953 ft | 182 kts | 271° |
| 2026-04-22 13:21 | 60.40801 | 25.15361 | 3677 ft | 184 kts | 250° |
| 2026-04-22 13:21 | 60.40011 | 25.13284 | 3415 ft | 186 kts | 237° |
| 2026-04-22 13:21 | 60.39168 | 25.11344 | 2989 ft | 174 kts | 236° |
| 2026-04-22 13:21 | 60.38359 | 25.09587 | 2452 ft | 168 kts | 235° |
| 2026-04-22 13:22 | 60.37612 | 25.07930 | 1953 ft | 148 kts | 237° |
| 2026-04-22 13:22 | 60.36936 | 25.06423 | 1429 ft | 142 kts | 238° |
| 2026-04-22 13:22 | 60.36293 | 25.05014 | 1153 ft | 131 kts | 236° |
| 2026-04-22 13:22 | 60.35697 | 25.03701 | 972 ft | 125 kts | 238° |
| 2026-04-22 13:23 | 60.35116 | 25.02413 | 790 ft | 121 kts | 236° |
| 2026-04-22 13:23 | 60.34555 | 25.01177 | 627 ft | 113 kts | 236° |
| 2026-04-22 13:23 | 60.34049 | 25.00037 | 472 ft | 107 kts | 238° |
| 2026-04-22 13:23 | 60.33552 | 24.98950 | 326 ft | 101 kts | 236° |
| 2026-04-22 13:24 | 60.33095 | 24.97983 | 206 ft | 91 kts | 238° |
| 2026-04-22 13:24 | 60.32708 | 24.97104 | 166 ft | 68 kts | 229° |
| 2026-04-22 13:24 | 60.32507 | 24.96684 | 170 ft | 34 kts | 218° |
| 2026-04-22 13:24 | 60.32413 | 24.96711 | 168 ft | 20 kts | 131° |
| 2026-04-22 13:25 | 60.32301 | 24.96853 | 161 ft | 29 kts | 156° |
| 2026-04-22 13:25 | 60.32075 | 24.97086 | 159 ft | 23 kts | 152° |
| 2026-04-22 13:25 | 60.31918 | 24.97249 | 159 ft | 28 kts | 153° |
| 2026-04-22 13:25 | 60.31795 | 24.97377 | 158 ft | 28 kts | 153° |
| 2026-04-22 13:26 | 60.31641 | 24.97535 | 158 ft | 27 kts | 154° |
| 2026-04-22 13:26 | 60.31476 | 24.97704 | 158 ft | 21 kts | 152° |
| 2026-04-22 13:26 | 60.31350 | 24.97839 | 158 ft | 21 kts | 153° |
| 2026-04-22 13:26 | 60.31202 | 24.97994 | 158 ft | 27 kts | 154° |
| 2026-04-22 13:27 | 60.31044 | 24.98152 | 158 ft | 26 kts | 153° |
| 2026-04-22 13:27 | 60.30974 | 24.98296 | 156 ft | 13 kts | 82° |
| 2026-04-22 13:27 | 60.31029 | 24.98520 | 151 ft | 22 kts | 62° |
| 2026-04-22 13:27 | 60.31092 | 24.98767 | 148 ft | 13 kts | 67° |
| 2026-04-22 13:28 | 60.31135 | 24.98891 | 148 ft | 10 kts | 9° |
| 2026-04-22 13:28 | 60.31207 | 24.98846 | 149 ft | 11 kts | 333° |
| 2026-04-22 13:28 | 60.31269 | 24.98874 | 149 ft | 12 kts | 64° |
| 2026-04-22 13:28 | 60.31300 | 24.98936 | 150 ft | 4 kts | 317° |
| 2026-04-22 13:29 | 60.31302 | 24.98903 | 150 ft | 0 kts | 243° |